Time;durP1;ratioP1;P1;durP2;ratioP2;P2;SDS_P1;SDS_P2;PMS_P1;PMS_P2;Temp;Humidity;BMP_temperature;BMP_pressure;BME280_temperature;BME280_humidity;BME280_pressure;Samples;Min_cycle;Max_cycle;Signal;HPM_P1;HPM_P2
2023/07/12 00:02:01;;;;;;;0.10;0.10;;;;;;;23.02;100.00;98443.84;5008778;28;20198;-81
2023/07/12 00:04:30;;;;;;;0.10;0.10;;;;;;;23.01;100.00;98434.09;5002166;28;20202;-81
2023/07/12 00:07:00;;;;;;;0.10;0.10;;;;;;;23.03;100.00;98438.25;5000638;28;20230;-81
2023/07/12 00:09:28;;;;;;;0.10;0.10;;;;;;;22.95;100.00;98435.69;5004549;28;20206;-81
2023/07/12 00:11:57;;;;;;;0.10;0.10;;;;;;;22.77;100.00;98430.72;5005611;28;20246;-81
2023/07/12 00:14:26;;;;;;;0.10;0.10;;;;;;;22.57;100.00;98435.94;5004842;28;20301;-81
2023/07/12 00:16:56;;;;;;;0.10;0.10;;;;;;;22.72;100.00;98435.88;5005475;28;20223;-81
2023/07/12 00:19:26;;;;;;;0.10;0.10;;;;;;;22.78;100.00;98434.28;5005001;28;20193;-81
2023/07/12 00:21:54;;;;;;;0.10;0.10;;;;;;;22.65;100.00;98431.44;5039474;28;20208;-81
2023/07/12 00:24:23;;;;;;;0.10;0.10;;;;;;;22.65;100.00;98429.56;5098654;28;20205;-81
2023/07/12 00:26:52;;;;;;;0.10;0.10;;;;;;;22.59;100.00;98426.81;5049906;28;20193;-81
2023/07/12 00:29:24;;;;;;;0.10;0.10;;;;;;;22.31;100.00;98421.34;5047172;28;20201;-81
2023/07/12 00:31:54;;;;;;;0.10;0.10;;;;;;;22.45;100.00;98425.84;5049902;28;20232;-81
2023/07/12 00:34:22;;;;;;;0.10;0.10;;;;;;;22.51;100.00;98422.38;5044803;28;20201;-81
2023/07/12 00:36:51;;;;;;;0.10;0.10;;;;;;;22.53;100.00;98421.16;5041821;28;20345;-81
2023/07/12 00:39:20;;;;;;;0.10;0.10;;;;;;;22.43;100.00;98428.72;5049528;28;20193;-81
2023/07/12 00:41:58;;;;;;;0.10;0.10;;;;;;;22.36;100.00;98425.13;5045257;28;20197;-80
2023/07/12 00:44:33;;;;;;;0.10;0.10;;;;;;;22.44;100.00;98427.69;5047430;28;20295;-81
2023/07/12 00:47:03;;;;;;;0.10;0.10;;;;;;;22.33;100.00;98422.81;5049343;28;20218;-81
2023/07/12 00:49:34;;;;;;;0.10;0.10;;;;;;;22.27;100.00;98418.16;5010405;28;20324;-81
2023/07/12 00:52:08;;;;;;;0.10;0.10;;;;;;;22.23;100.00;98423.13;5049400;28;20277;-81
2023/07/12 00:54:54;;;;;;;0.10;0.10;;;;;;;22.36;100.00;98416.19;4998911;28;20195;-82
2023/07/12 00:57:23;;;;;;;0.10;0.10;;;;;;;22.07;100.00;98412.56;5044581;28;20208;-81
2023/07/12 00:59:54;;;;;;;0.10;0.10;;;;;;;22.13;100.00;98409.09;5044494;28;20207;-81
2023/07/12 01:02:24;;;;;;;0.10;0.10;;;;;;;22.22;100.00;98409.84;5043419;28;20282;-81
2023/07/12 01:04:58;;;;;;;0.10;0.10;;;;;;;22.31;100.00;98399.75;5043840;28;20270;-81
2023/07/12 01:07:30;;;;;;;0.10;0.10;;;;;;;22.14;100.00;98408.06;5052574;28;20228;-81
2023/07/12 01:09:58;;;;;;;0.10;0.10;;;;;;;22.10;100.00;98412.19;5046033;28;20189;-82
2023/07/12 01:12:27;;;;;;;0.10;0.10;;;;;;;22.22;100.00;98401.75;5017909;28;20297;-81
2023/07/12 01:14:55;;;;;;;0.10;0.10;;;;;;;22.22;100.00;98407.97;5011102;28;20202;-80
2023/07/12 01:17:26;;;;;;;0.10;0.10;;;;;;;22.17;100.00;98406.84;5009298;28;20305;-81
2023/07/12 01:19:55;;;;;;;0.03;0.03;;;;;;;22.06;100.00;98407.31;5010955;28;20218;-81
2023/07/12 01:22:25;;;;;;;0.10;0.10;;;;;;;21.98;100.00;98403.69;5011342;28;20704;-81
2023/07/12 01:24:54;;;;;;;0.10;0.10;;;;;;;22.08;100.00;98416.91;5007275;28;20267;-81
2023/07/12 01:27:25;;;;;;;0.10;0.10;;;;;;;22.03;100.00;98405.84;5006472;28;20198;-81
2023/07/12 01:29:55;;;;;;;0.10;0.10;;;;;;;22.04;100.00;98399.44;5013311;28;20684;-81
2023/07/12 01:32:23;;;;;;;0.10;0.10;;;;;;;22.07;100.00;98411.72;5045777;28;20221;-81
2023/07/12 01:34:52;;;;;;;0.10;0.10;;;;;;;21.78;100.00;98404.50;5047757;28;20200;-81
2023/07/12 01:37:21;;;;;;;0.10;0.10;;;;;;;21.88;100.00;98405.03;5047227;28;20201;-81
2023/07/12 01:39:51;;;;;;;0.10;0.10;;;;;;;21.79;100.00;98409.69;5052147;28;20217;-81
2023/07/12 01:42:20;;;;;;;0.10;0.10;;;;;;;21.81;100.00;98406.81;5052351;28;20201;-81
2023/07/12 01:44:48;;;;;;;0.10;0.10;;;;;;;21.80;100.00;98403.28;5043055;28;20205;-81
2023/07/12 01:47:17;;;;;;;0.10;0.10;;;;;;;21.75;100.00;98394.94;5052320;28;20204;-81
2023/07/12 01:49:45;;;;;;;0.10;0.10;;;;;;;21.69;100.00;98406.44;5043518;28;20204;-81
2023/07/12 01:52:13;;;;;;;0.10;0.10;;;;;;;21.68;100.00;98405.63;5041791;28;20225;-81
2023/07/12 01:54:42;;;;;;;0.10;0.10;;;;;;;21.62;100.00;98414.47;5006503;28;20186;-81
2023/07/12 01:57:12;;;;;;;0.10;0.10;;;;;;;21.62;100.00;98409.06;5005616;28;20206;-81
2023/07/12 01:59:41;;;;;;;0.10;0.10;;;;;;;21.57;100.00;98403.41;5006843;28;20191;-81
2023/07/12 02:02:10;;;;;;;0.10;0.10;;;;;;;21.58;100.00;98401.53;5008581;28;20704;-81
2023/07/12 02:04:39;;;;;;;0.10;0.10;;;;;;;21.53;100.00;98407.50;5005117;28;20215;-81
2023/07/12 02:07:08;;;;;;;0.10;0.10;;;;;;;21.43;100.00;98409.63;5000807;28;20202;-81
2023/07/12 02:09:42;;;;;;;0.10;0.10;;;;;;;21.46;100.00;98409.25;5001170;28;20199;-81
2023/07/12 02:12:12;;;;;;;0.10;0.10;;;;;;;21.53;100.00;98420.97;5009955;28;20217;-81
2023/07/12 02:14:41;;;;;;;0.10;0.10;;;;;;;21.59;100.00;98422.91;5041595;28;20194;-81
2023/07/12 02:17:09;;;;;;;0.10;0.10;;;;;;;21.42;100.00;98427.66;5047477;28;20233;-81
2023/07/12 02:19:38;;;;;;;0.10;0.10;;;;;;;21.40;100.00;98431.53;5039761;28;20229;-81
2023/07/12 02:22:08;;;;;;;0.10;0.10;;;;;;;21.54;100.00;98427.19;5040213;28;20308;-82
2023/07/12 02:24:36;;;;;;;0.10;0.10;;;;;;;21.58;100.00;98421.25;5042329;28;20234;-81
2023/07/12 02:27:05;;;;;;;0.10;0.10;;;;;;;21.55;100.00;98415.41;5043918;28;20283;-81
2023/07/12 02:29:36;;;;;;;0.10;0.10;;;;;;;21.51;100.00;98411.38;5047741;28;20208;-81
2023/07/12 02:32:06;;;;;;;0.10;0.10;;;;;;;21.53;100.00;98410.19;5001811;28;20210;-81
2023/07/12 02:34:34;;;;;;;0.10;0.10;;;;;;;21.54;100.00;98413.72;5040517;28;20194;-81
2023/07/12 02:37:03;;;;;;;0.10;0.10;;;;;;;21.67;100.00;98416.59;5006871;28;20187;-81
2023/07/12 02:39:32;;;;;;;0.10;0.10;;;;;;;21.60;100.00;98421.88;5011637;28;20351;-81
2023/07/12 02:42:00;;;;;;;0.00;0.00;;;;;;;21.62;100.00;98414.47;5006504;28;20194;-81
2023/07/12 02:44:29;;;;;;;0.10;0.10;;;;;;;21.53;100.00;98410.19;5005833;28;20195;-81
2023/07/12 02:46:59;;;;;;;0.10;0.10;;;;;;;21.60;100.00;98413.78;5007064;28;20201;-82
2023/07/12 02:49:28;;;;;;;0.10;0.10;;;;;;;21.59;100.00;98406.72;5012104;28;20228;-81
2023/07/12 02:51:56;;;;;;;0.10;0.10;;;;;;;21.51;100.00;98406.00;5049002;28;20209;-81
2023/07/12 02:54:25;;;;;;;0.10;0.10;;;;;;;21.58;100.00;98402.38;5051318;28;20213;-82
2023/07/12 02:56:53;;;;;;;0.10;0.10;;;;;;;21.58;100.00;98409.63;5049591;28;20208;-81
2023/07/12 02:59:21;;;;;;;0.10;0.10;;;;;;;21.60;100.00;98415.66;5051745;28;20208;-81
2023/07/12 03:01:51;;;;;;;0.10;0.10;;;;;;;21.49;100.00;98424.22;5046868;28;20231;-81
2023/07/12 03:04:22;;;;;;;0.10;0.10;;;;;;;21.57;100.00;98416.88;5049502;28;20245;-81
2023/07/12 03:06:51;;;;;;;0.10;0.10;;;;;;;21.31;100.00;98417.31;5044410;28;20208;-81
2023/07/12 03:09:19;;;;;;;0.10;0.10;;;;;;;21.35;100.00;98417.81;5046893;28;20288;-81
2023/07/12 03:11:48;;;;;;;0.10;0.10;;;;;;;21.51;100.00;98408.69;5051157;28;20228;-81
2023/07/12 03:14:16;;;;;;;0.10;0.10;;;;;;;21.43;100.00;98407.78;5049279;28;20274;-81
2023/07/12 03:16:46;;;;;;;0.10;0.10;;;;;;;21.47;100.00;98415.47;5050525;28;20273;-82
2023/07/12 03:19:15;;;;;;;0.10;0.10;;;;;;;21.37;100.00;98397.72;5044219;28;20369;-81
2023/07/12 03:21:48;;;;;;;0.10;0.10;;;;;;;21.52;100.00;98408.53;5050330;28;20594;-81
2023/07/12 03:24:16;;;;;;;0.10;0.10;;;;;;;21.54;100.00;98405.63;5045744;28;20194;-81
2023/07/12 03:26:45;;;;;;;0.10;0.10;;;;;;;21.57;100.00;98402.56;5048608;28;20201;-81
2023/07/12 03:29:13;;;;;;;0.10;0.10;;;;;;;21.61;100.00;98396.59;5052946;28;20200;-81
2023/07/12 03:31:42;;;;;;;0.10;0.10;;;;;;;21.66;100.00;98398.75;5040999;28;20209;-81
2023/07/12 03:34:10;;;;;;;0.10;0.10;;;;;;;21.64;100.00;98385.47;5049154;28;20253;-81
2023/07/12 03:36:40;;;;;;;0.10;0.10;;;;;;;21.62;100.00;98383.97;5047720;28;20200;-81
2023/07/12 03:39:10;;;;;;;0.10;0.10;;;;;;;21.67;100.00;98373.47;5050262;28;20205;-81
2023/07/12 03:41:39;;;;;;;0.10;0.10;;;;;;;21.55;100.00;98383.06;5048264;28;20214;-81
2023/07/12 03:44:08;;;;;;;0.10;0.10;;;;;;;21.62;100.00;98386.69;5046114;28;20272;-81
2023/07/12 03:46:36;;;;;;;0.10;0.10;;;;;;;21.55;100.00;98391.97;5050126;28;20311;-81
2023/07/12 03:49:05;;;;;;;0.10;0.10;;;;;;;21.53;100.00;98396.72;5052081;28;20197;-81
2023/07/12 03:51:34;;;;;;;0.10;0.10;;;;;;;21.54;100.00;98398.38;5016191;28;20249;-82
2023/07/12 03:54:02;;;;;;;0.10;0.10;;;;;;;21.58;100.00;98398.84;5049708;28;20236;-80
2023/07/12 03:56:32;;;;;;;0.10;0.10;;;;;;;21.37;100.00;98397.72;5045326;28;20208;-80
2023/07/12 03:59:00;;;;;;;0.03;0.03;;;;;;;21.45;100.00;98406.75;5037878;28;20197;-80
2023/07/12 04:01:29;;;;;;;0.10;0.10;;;;;;;21.50;100.00;98407.84;5050178;28;20193;-80
2023/07/12 04:03:59;;;;;;;0.10;0.10;;;;;;;21.52;100.00;98411.22;5048534;28;20261;-82
2023/07/12 04:06:30;;;;;;;0.10;0.10;;;;;;;21.56;100.00;98412.50;5048540;28;20228;-80
2023/07/12 04:08:58;;;;;;;0.10;0.10;;;;;;;21.63;100.00;98418.84;5042741;28;20454;-80
2023/07/12 04:11:28;;;;;;;0.10;0.10;;;;;;;21.64;100.00;98411.59;5050070;28;20676;-80
2023/07/12 04:14:02;;;;;;;0.10;0.10;;;;;;;21.49;100.00;98416.13;4988808;28;20227;-80
2023/07/12 04:16:31;;;;;;;0.00;0.00;;;;;;;21.55;100.00;98420.78;5025692;28;20217;-80
2023/07/12 04:19:00;;;;;;;0.10;0.10;;;;;;;21.53;100.00;98426.38;5026959;28;20280;-80
2023/07/12 04:21:28;;;;;;;0.10;0.10;;;;;;;21.51;100.00;98425.69;5023522;28;20224;-81
2023/07/12 04:23:56;;;;;;;0.10;0.10;;;;;;;21.49;100.00;98448.47;5027359;28;20204;-80
2023/07/12 04:26:25;;;;;;;0.10;0.10;;;;;;;21.43;100.00;98447.38;5026150;28;20214;-80
2023/07/12 04:28:54;;;;;;;0.10;0.10;;;;;;;21.43;100.00;98472.44;5028153;28;20401;-81
2023/07/12 04:31:24;;;;;;;0.10;0.10;;;;;;;21.53;100.00;98457.88;5040666;28;20187;-81
2023/07/12 04:33:54;;;;;;;0.10;0.10;;;;;;;21.60;100.00;98466.88;5096357;28;20213;-80
2023/07/12 04:36:23;;;;;;;0.10;0.10;;;;;;;21.60;100.00;98473.09;5045259;28;20632;-80
2023/07/12 04:38:52;;;;;;;0.10;0.10;;;;;;;21.70;100.00;98468.25;5053218;28;20193;-80
2023/07/12 04:41:20;;;;;;;0.10;0.10;;;;;;;21.79;100.00;98460.91;5045205;28;20211;-80
2023/07/12 04:43:48;;;;;;;0.10;0.10;;;;;;;21.33;100.00;98469.19;5053015;28;20204;-81
2023/07/12 04:46:16;;;;;;;0.10;0.10;;;;;;;21.59;100.00;98471.41;5047835;28;20192;-81
2023/07/12 04:48:47;;;;;;;0.10;0.10;;;;;;;21.40;100.00;98475.50;5047637;28;20212;-81
2023/07/12 04:51:16;;;;;;;0.10;0.10;;;;;;;21.35;100.00;98488.69;5052772;28;20193;-81
2023/07/12 04:53:47;;;;;;;0.10;0.10;;;;;;;21.12;100.00;98501.31;5042659;28;20220;-81
2023/07/12 04:56:16;;;;;;;0.10;0.10;;;;;;;21.04;100.00;98498.72;5050814;28;20201;-80
2023/07/12 04:58:44;;;;;;;0.10;0.10;;;;;;;20.95;100.00;98521.34;5048331;28;20197;-80
2023/07/12 05:01:13;;;;;;;0.10;0.10;;;;;;;21.04;100.00;98528.34;5051464;28;20200;-80
2023/07/12 05:03:41;;;;;;;0.10;0.10;;;;;;;21.08;100.00;98551.19;4947287;29;20193;-80
2023/07/12 05:06:11;;;;;;;0.10;0.10;;;;;;;21.14;100.00;98556.69;4946963;29;20278;-79
2023/07/12 05:08:50;;;;;;;0.10;0.10;;;;;;;21.24;100.00;98574.47;4948194;29;20214;-80
2023/07/12 05:11:19;;;;;;;0.10;0.10;;;;;;;21.21;100.00;98558.66;4950094;29;20209;-80
2023/07/12 05:13:47;;;;;;;0.10;0.10;;;;;;;21.24;100.00;98559.16;4950300;29;20231;-80
2023/07/12 05:16:15;;;;;;;0.10;0.10;;;;;;;21.14;100.00;98551.31;4952451;29;20728;-80
2023/07/12 05:18:44;;;;;;;0.10;0.10;;;;;;;20.95;100.00;98540.19;4950270;28;20203;-80
2023/07/12 05:21:14;;;;;;;0.10;0.10;;;;;;;20.86;100.00;98532.16;4971553;28;20261;-80
2023/07/12 05:23:44;;;;;;;0.10;0.10;;;;;;;20.93;100.00;98543.03;5028109;28;20254;-80
2023/07/12 05:26:13;;;;;;;0.10;0.10;;;;;;;20.93;100.00;98545.72;5052726;28;20190;-79
2023/07/12 05:28:41;;;;;;;0.10;0.10;;;;;;;20.89;100.00;98567.81;5052354;28;20212;-79
2023/07/12 05:31:11;;;;;;;0.10;0.10;;;;;;;20.83;100.00;98585.50;5042264;28;20617;-80
2023/07/12 05:33:43;;;;;;;0.10;0.10;;;;;;;20.81;100.00;98585.69;5050636;28;20614;-80
2023/07/12 05:36:14;;;;;;;0.10;0.10;;;;;;;20.68;100.00;98590.81;5048029;28;20204;-80
2023/07/12 05:38:43;;;;;;;0.10;0.10;;;;;;;20.55;100.00;98590.53;5052183;28;20182;-80
2023/07/12 05:41:12;;;;;;;0.10;0.10;;;;;;;20.51;100.00;98586.53;5052203;28;20201;-80
2023/07/12 05:43:41;;;;;;;0.10;0.10;;;;;;;20.42;100.00;98584.84;5051262;28;20212;-79
2023/07/12 05:46:09;;;;;;;0.10;0.10;;;;;;;20.43;100.00;98584.72;5057104;28;20208;-80
2023/07/12 05:48:38;;;;;;;0.10;0.10;;;;;;;20.50;100.00;98588.38;5047376;28;20208;-80
2023/07/12 05:51:07;;;;;;;0.10;0.10;;;;;;;20.53;100.00;98592.56;5047100;28;20227;-80
2023/07/12 05:53:38;;;;;;;0.10;0.10;;;;;;;20.42;100.00;98584.84;5047611;28;20189;-80
2023/07/12 05:56:07;;;;;;;0.10;0.10;;;;;;;20.33;100.00;98586.72;5051676;28;20223;-80
2023/07/12 05:58:36;;;;;;;0.10;0.10;;;;;;;20.37;100.00;98580.00;5048291;28;20265;-80
2023/07/12 06:01:05;;;;;;;0.10;0.10;;;;;;;20.49;100.00;98573.25;5046827;28;20193;-80
2023/07/12 06:03:35;;;;;;;0.10;0.10;;;;;;;20.54;100.00;98587.00;5046568;28;20197;-80
2023/07/12 06:06:07;;;;;;;0.10;0.10;;;;;;;20.45;100.00;98577.28;5051928;28;20276;-80
2023/07/12 06:08:35;;;;;;;0.10;0.10;;;;;;;20.50;100.00;98572.25;5049142;28;20277;-80
2023/07/12 06:11:05;;;;;;;0.10;0.10;;;;;;;20.61;100.00;98583.63;5048257;28;20257;-80
2023/07/12 06:13:36;;;;;;;0.10;0.10;;;;;;;20.60;100.00;98579.25;5048968;28;20212;-80
2023/07/12 06:16:05;;;;;;;0.10;0.10;;;;;;;20.65;100.00;98590.31;5029252;28;20224;-80
2023/07/12 06:18:33;;;;;;;0.10;0.10;;;;;;;20.77;100.00;98578.16;4979341;28;20198;-80
2023/07/12 06:21:06;;;;;;;0.10;0.10;;;;;;;20.77;100.00;98572.78;5022583;28;20209;-80
2023/07/12 06:23:35;;;;;;;0.10;0.10;;;;;;;20.89;100.00;98571.34;5024583;28;20210;-80
2023/07/12 06:26:06;;;;;;;0.10;0.10;;;;;;;21.02;100.00;98578.81;5025446;28;20198;-80
2023/07/12 06:28:37;;;;;;;0.10;0.10;;;;;;;20.92;100.00;98581.75;5029493;28;20197;-80
2023/07/12 06:31:06;;;;;;;0.10;0.10;;;;;;;21.11;100.00;98580.44;5076626;28;20206;-80
2023/07/12 06:33:38;;;;;;;0.10;0.10;;;;;;;21.16;100.00;98572.66;5028483;28;20213;-80
2023/07/12 06:36:07;;;;;;;0.10;0.10;;;;;;;21.17;100.00;98557.34;5031843;28;20225;-80
2023/07/12 06:38:35;;;;;;;0.10;0.10;;;;;;;21.41;100.00;98565.25;5031152;28;20198;-80
2023/07/12 06:41:05;;;;;;;0.10;0.10;;;;;;;21.34;100.00;98561.63;5042729;28;20212;-80
2023/07/12 06:43:34;;;;;;;0.10;0.10;;;;;;;21.34;100.00;98562.47;5047839;28;20209;-80
2023/07/12 06:46:03;;;;;;;0.10;0.10;;;;;;;21.32;100.00;98551.00;5047204;28;20224;-80
2023/07/12 06:48:32;;;;;;;0.10;0.10;;;;;;;21.36;100.00;98554.19;5045711;28;20238;-80
2023/07/12 06:51:02;;;;;;;0.10;0.10;;;;;;;21.45;100.00;98554.97;5049786;28;20680;-80
2023/07/12 06:53:30;;;;;;;0.10;0.10;;;;;;;21.51;100.00;98557.75;5049514;28;20216;-80
2023/07/12 06:55:58;;;;;;;0.10;0.10;;;;;;;21.53;100.00;98562.97;4987224;28;20230;-81
2023/07/12 06:58:28;;;;;;;0.10;0.10;;;;;;;21.57;100.00;98565.09;4981560;28;20195;-81
2023/07/12 07:00:56;;;;;;;0.10;0.10;;;;;;;21.65;100.00;98570.44;4995753;28;20203;-81
2023/07/12 07:03:25;;;;;;;0.10;0.10;;;;;;;21.81;100.00;98580.22;4982737;28;20199;-81
2023/07/12 07:05:54;;;;;;;0.10;0.10;;;;;;;21.99;100.00;98575.28;4989524;28;20261;-81
2023/07/12 07:08:26;;;;;;;0.10;0.10;;;;;;;22.06;100.00;98580.78;4982104;28;20294;-80
2023/07/12 07:10:56;;;;;;;0.10;0.10;;;;;;;22.24;100.00;98586.69;4989607;28;20244;-81
2023/07/12 07:13:25;;;;;;;0.10;0.10;;;;;;;22.37;100.00;98590.56;5001279;28;20189;-81
2023/07/12 07:15:55;;;;;;;0.10;0.10;;;;;;;22.43;100.00;98595.22;5046419;28;20225;-81
2023/07/12 07:18:24;;;;;;;0.10;0.10;;;;;;;22.07;100.00;98590.56;5046874;28;20218;-81
2023/07/12 07:20:53;;;;;;;0.10;0.10;;;;;;;22.17;100.00;98593.00;5051847;28;20201;-80
2023/07/12 07:23:21;;;;;;;0.10;0.10;;;;;;;22.18;100.00;98595.50;5049005;28;20657;-80
2023/07/12 07:25:49;;;;;;;0.10;0.10;;;;;;;22.23;100.00;98594.97;5047811;28;20208;-81
2023/07/12 07:28:20;;;;;;;0.10;0.10;;;;;;;22.24;100.00;98597.47;5044676;28;20228;-80
2023/07/12 07:30:55;;;;;;;0.10;0.10;;;;;;;22.51;100.00;98597.84;5049561;28;20196;-80
2023/07/12 07:33:25;;;;;;;0.10;0.10;;;;;;;22.54;100.00;98592.88;5048936;28;20177;-80
2023/07/12 07:35:55;;;;;;;0.10;0.10;;;;;;;22.62;100.00;98604.59;5050254;28;20239;-80
2023/07/12 07:38:27;;;;;;;0.10;0.10;;;;;;;22.64;100.00;98600.69;5044952;28;20204;-80
2023/07/12 07:40:57;;;;;;;0.10;0.10;;;;;;;22.74;100.00;98598.53;5048185;28;20197;-80
2023/07/12 07:43:25;;;;;;;0.10;0.10;;;;;;;22.85;100.00;98599.91;5045852;28;20269;-80
2023/07/12 07:45:55;;;;;;;0.10;0.10;;;;;;;22.45;100.00;98598.56;5047431;28;20294;-80
2023/07/12 07:48:23;;;;;;;0.08;0.08;;;;;;;22.59;100.00;98594.19;5048762;28;20246;-80
2023/07/12 07:50:53;;;;;;;0.10;0.10;;;;;;;22.35;100.00;98598.84;5109838;28;20198;-80
2023/07/12 07:53:22;;;;;;;0.10;0.10;;;;;;;22.18;100.00;98595.50;5104266;28;20199;-80
2023/07/12 07:55:51;;;;;;;0.10;0.10;;;;;;;22.17;100.00;98606.50;5108756;27;20245;-80
2023/07/12 07:58:20;;;;;;;0.10;0.10;;;;;;;22.20;100.00;98596.19;5107435;28;20195;-80
2023/07/12 08:00:49;;;;;;;0.10;0.10;;;;;;;22.57;100.00;98597.06;5107379;28;20211;-81
2023/07/12 08:03:20;;;;;;;0.10;0.10;;;;;;;22.84;100.00;98598.25;5102745;28;20213;-81
2023/07/12 08:05:48;;;;;;;0.10;0.10;;;;;;;23.13;100.00;98602.72;5103865;28;20244;-80
2023/07/12 08:08:17;;;;;;;0.10;0.10;;;;;;;23.28;100.00;98595.41;5095842;28;20203;-81
2023/07/12 08:10:45;;;;;;;0.10;0.10;;;;;;;23.40;100.00;98596.56;5052531;28;20211;-81
2023/07/12 08:13:15;;;;;;;0.10;0.10;;;;;;;23.14;100.00;98594.41;5043105;28;20197;-80
2023/07/12 08:15:44;;;;;;;0.10;0.10;;;;;;;23.33;100.00;98595.66;5041356;28;20348;-80
2023/07/12 08:18:13;;;;;;;0.10;0.10;;;;;;;23.44;100.00;98594.28;5048726;28;20194;-81
2023/07/12 08:20:43;;;;;;;0.10;0.10;;;;;;;23.40;100.00;98596.56;4983136;28;20202;-80
2023/07/12 08:23:14;;;;;;;0.05;0.05;;;;;;;22.68;100.00;98598.44;4985226;28;20293;-80
2023/07/12 08:25:42;;;;;;;0.10;0.10;;;;;;;22.94;100.00;98587.97;4980229;28;20229;-81
2023/07/12 08:28:11;;;;;;;0.10;0.10;;;;;;;23.45;100.00;98603.22;4983496;28;20198;-80
2023/07/12 08:30:40;;;;;;;0.10;0.10;;;;;;;23.74;100.00;98604.97;4985610;28;20222;-80
2023/07/12 08:33:09;;;;;;;0.10;0.10;;;;;;;23.35;100.00;98593.59;4983870;28;20203;-80
2023/07/12 08:35:37;;;;;;;0.10;0.10;;;;;;;23.64;100.00;98608.88;4988035;28;20352;-80
2023/07/12 08:38:18;;;;;;;0.10;0.10;;;;;;;23.12;100.00;98611.88;4973260;28;20199;-80
2023/07/12 08:40:50;;;;;;;0.10;0.10;;;;;;;23.24;100.00;98599.50;5049035;28;20277;-81
2023/07/12 08:43:22;;;;;;;0.10;0.10;;;;;;;23.05;100.00;98608.25;5049100;28;20205;-80
2023/07/12 08:45:54;;;;;;;0.10;0.10;;;;;;;22.88;100.00;98612.22;5049047;28;20248;-80
2023/07/12 08:48:25;;;;;;;0.10;0.10;;;;;;;23.33;100.00;98608.31;5043159;28;20240;-80
2023/07/12 08:50:53;;;;;;;0.10;0.10;;;;;;;23.38;100.00;98617.53;5046474;28;20205;-80
2023/07/12 08:53:29;;;;;;;0.10;0.10;;;;;;;23.51;100.00;98618.69;5042640;28;20197;-80
2023/07/12 08:56:00;;;;;;;0.10;0.10;;;;;;;23.48;100.00;98608.28;5047945;28;20212;-80
2023/07/12 08:58:33;;;;;;;0.10;0.10;;;;;;;23.46;100.00;98613.03;5048756;28;20197;-80
2023/07/12 09:01:05;;;;;;;0.10;0.10;;;;;;;23.54;100.00;98610.19;5049655;28;20197;-80
2023/07/12 09:03:34;;;;;;;0.10;0.10;;;;;;;23.60;100.00;98615.69;5045469;28;20201;-79
2023/07/12 09:06:11;;;;;;;0.10;0.10;;;;;;;23.72;98.99;98623.28;5048911;28;20190;-81
2023/07/12 09:08:45;;;;;;;0.10;0.10;;;;;;;23.94;100.00;98628.47;5044001;28;20284;-80
2023/07/12 09:11:16;;;;;;;0.10;0.10;;;;;;;24.22;95.80;98630.28;5024771;28;20207;-80
2023/07/12 09:13:46;;;;;;;0.10;0.10;;;;;;;23.48;100.00;98643.41;4995124;28;20421;-80
2023/07/12 09:16:24;;;;;;;0.00;0.00;;;;;;;23.80;99.13;98639.38;4980264;28;20281;-81
2023/07/12 09:18:54;;;;;;;0.10;0.10;;;;;;;23.76;95.53;98635.38;4984489;28;20717;-80
2023/07/12 09:21:25;;;;;;;0.10;0.10;;;;;;;23.74;97.21;98635.59;4985080;28;20203;-80
2023/07/12 09:24:00;;;;;;;0.10;0.10;;;;;;;23.84;98.18;98629.84;4991239;28;20219;-80
2023/07/12 09:26:32;;;;;;;0.10;0.10;;;;;;;24.20;97.29;98632.38;4980475;28;20250;-80
2023/07/12 09:29:14;;;;;;;0.10;0.10;;;;;;;24.00;94.99;98634.94;4985959;28;20349;-80
2023/07/12 09:31:46;;;;;;;0.03;0.03;;;;;;;24.40;93.09;98624.41;5009979;28;20201;-81
2023/07/12 09:34:22;;;;;;;0.10;0.10;;;;;;;24.40;95.52;98632.53;5047783;28;20197;-80
2023/07/12 09:36:58;;;;;;;0.03;0.03;;;;;;;24.59;91.39;98637.22;5050069;28;20217;-81
2023/07/12 09:39:28;;;;;;;0.10;0.10;;;;;;;24.34;94.89;98645.00;5031211;28;20197;-80
2023/07/12 09:41:59;;;;;;;0.10;0.10;;;;;;;24.54;91.75;98643.25;5050654;28;20193;-80
2023/07/12 09:44:29;;;;;;;0.10;0.10;;;;;;;24.32;92.13;98648.91;5050146;28;20229;-80
2023/07/12 09:47:03;;;;;;;0.00;0.00;;;;;;;24.12;92.32;98651.47;5049361;28;20280;-81
2023/07/12 09:49:41;;;;;;;0.10;0.10;;;;;;;24.17;94.25;98646.31;5069821;28;20192;-80
2023/07/12 09:52:21;;;;;;;0.10;0.10;;;;;;;24.32;94.81;98635.38;5066862;28;20245;-80
2023/07/12 09:54:56;;;;;;;0.10;0.10;;;;;;;24.42;92.28;98630.47;5063232;28;20200;-81
2023/07/12 09:57:39;;;;;;;0.00;0.00;;;;;;;24.15;92.52;98642.97;5065354;28;20247;-80
2023/07/12 10:00:19;;;;;;;0.10;0.10;;;;;;;24.70;92.81;98646.63;5068459;28;20196;-80
2023/07/12 10:03:01;;;;;;;0.10;0.10;;;;;;;24.53;92.24;98644.28;5067107;28;20196;-79
2023/07/12 10:05:31;;;;;;;0.00;0.00;;;;;;;24.89;91.18;98628.78;5068333;28;20200;-80
2023/07/12 10:08:05;;;;;;;0.03;0.03;;;;;;;25.30;87.47;98628.75;5056157;28;20198;-80
2023/07/12 10:10:40;;;;;;;0.10;0.10;;;;;;;25.61;81.83;98629.00;4990393;28;20199;-80
2023/07/12 10:13:21;;;;;;;0.10;0.10;;;;;;;25.24;83.86;98637.69;4987205;28;20199;-80
2023/07/12 10:15:50;;;;;;;0.10;0.10;;;;;;;25.25;85.98;98626.63;4992214;28;20221;-80
2023/07/12 10:18:22;;;;;;;0.00;0.00;;;;;;;25.70;82.41;98624.22;4982482;28;20227;-80
2023/07/12 10:20:51;;;;;;;0.10;0.10;;;;;;;26.41;81.55;98612.69;4985405;28;20230;-80
2023/07/12 10:23:24;;;;;;;0.00;0.00;;;;;;;25.80;82.16;98627.38;5020007;28;20207;-79
2023/07/12 10:26:01;;;;;;;0.00;0.00;;;;;;;25.86;80.97;98620.25;4988988;28;20317;-79
2023/07/12 10:28:42;;;;;;;0.10;0.10;;;;;;;25.63;81.38;98626.91;4985477;28;20215;-80
2023/07/12 10:31:25;;;;;;;0.10;0.10;;;;;;;25.25;82.29;98614.97;4985172;28;20226;-79
2023/07/12 10:34:01;;;;;;;0.10;0.10;;;;;;;26.10;81.76;98619.63;4988011;28;20199;-79
2023/07/12 10:36:31;;;;;;;0.10;0.10;;;;;;;25.96;80.82;98612.50;5049021;28;20181;-79
2023/07/12 10:38:59;;;;;;;0.00;0.00;;;;;;;26.07;79.94;98622.75;5050520;28;20451;-80
2023/07/12 10:41:34;;;;;;;0.00;0.00;;;;;;;26.62;77.22;98623.28;5033059;28;20234;-80
2023/07/12 10:44:10;;;;;;;0.10;0.10;;;;;;;26.91;74.54;98624.63;5050061;28;20197;-81
2023/07/12 10:46:42;;;;;;;0.08;0.08;;;;;;;27.36;72.90;98616.44;5016465;28;20193;-81
2023/07/12 10:49:16;;;;;;;0.00;0.00;;;;;;;26.74;71.36;98627.00;5047506;28;20207;-80
2023/07/12 10:51:46;;;;;;;0.10;0.10;;;;;;;26.80;74.35;98628.84;5047503;28;20357;-79
2023/07/12 10:54:47;;;;;;;0.10;0.10;;;;;;;27.07;71.50;98620.59;5047945;28;20197;-80
2023/07/12 10:57:43;;;;;;;0.05;0.05;;;;;;;26.40;74.39;98624.59;5048597;28;20660;-80
2023/07/12 11:00:30;;;;;;;0.00;0.00;;;;;;;27.45;71.73;98620.56;5050395;28;20246;-80
2023/07/12 11:03:16;;;;;;;0.10;0.10;;;;;;;27.22;69.90;98623.88;5042698;28;20205;-80
2023/07/12 11:05:47;;;;;;;0.00;0.00;;;;;;;26.88;70.43;98618.78;5047163;28;20256;-80
2023/07/12 11:08:39;;;;;;;0.00;0.00;;;;;;;26.98;69.25;98616.44;5049106;28;20298;-80
2023/07/12 11:11:46;;;;;;;0.00;0.00;;;;;;;26.37;72.98;98620.44;5049304;28;20197;-80
2023/07/12 11:14:50;;;;;;;0.10;0.10;;;;;;;26.37;76.36;98623.16;5045797;28;20212;-80
2023/07/12 11:17:21;;;;;;;0.10;0.10;;;;;;;26.70;75.10;98620.31;5043612;28;20228;-80
2023/07/12 11:20:13;;;;;;;0.00;0.00;;;;;;;26.98;70.04;98620.00;5045932;28;20185;-80
2023/07/12 11:22:57;;;;;;;0.05;0.05;;;;;;;27.52;70.77;98618.66;5047311;28;20240;-80
2023/07/12 11:25:33;;;;;;;0.10;0.10;;;;;;;27.61;66.22;98606.44;5049430;28;20204;-80
2023/07/12 11:28:04;;;;;;;0.00;0.00;;;;;;;27.24;69.90;98618.22;5051291;28;20199;-80
2023/07/12 11:30:44;;;;;;;0.10;0.10;;;;;;;27.01;67.16;98611.38;5046330;28;20276;-80
2023/07/12 11:33:22;;;;;;;0.10;0.10;;;;;;;26.43;70.90;98605.97;5050087;28;20189;-80
2023/07/12 11:35:56;;;;;;;0.10;0.10;;;;;;;26.72;75.01;98607.34;5050382;28;20227;-82
2023/07/12 11:38:29;;;;;;;0.00;0.00;;;;;;;27.31;68.85;98603.53;5043860;28;20220;-80
2023/07/12 11:41:05;;;;;;;0.05;0.05;;;;;;;27.02;69.10;98599.53;5050302;28;20231;-80
2023/07/12 11:43:37;;;;;;;0.00;0.00;;;;;;;26.99;69.28;98607.22;5047147;28;20653;-80
2023/07/12 11:46:16;;;;;;;0.10;0.10;;;;;;;26.87;69.94;98617.94;5048314;28;20181;-80